createdAt,value
2023-01-04T00:02:54.468Z,99544.19
2023-01-04T00:06:01.827Z,99536.50
2023-01-04T00:09:08.327Z,99530.41
2023-01-04T00:12:16.560Z,99539.06
2023-01-04T00:15:22.900Z,99536.50
2023-01-04T00:18:28.391Z,99528.72
2023-01-04T00:21:34.837Z,99536.63
2023-01-04T00:24:40.232Z,99532.31
2023-01-04T00:27:49.394Z,99531.34
2023-01-04T00:30:54.856Z,99532.22
2023-01-04T00:34:04.775Z,99527.06
2023-01-04T00:37:10.284Z,99526.19
2023-01-04T00:40:16.805Z,99524.44
2023-01-04T00:43:25.515Z,99525.25
2023-01-04T00:46:32.259Z,99520.13
2023-01-04T00:49:37.721Z,99527.13
2023-01-04T00:52:43.981Z,99522.81
2023-01-04T00:55:50.533Z,99521.91
2023-01-04T00:59:03.281Z,99514.09
2023-01-04T01:02:47.870Z,99506.28
2023-01-04T01:05:54.272Z,99512.38
2023-01-04T01:09:00.895Z,99273.41
2023-01-04T01:12:07.709Z,99527.13
2023-01-04T01:15:16.340Z,99522.06
2023-01-04T01:18:22.812Z,99527.50
2023-01-04T01:21:32.425Z,99523.28
2023-01-04T01:24:38.630Z,99522.38
2023-01-04T01:27:43.987Z,99530.19
2023-01-04T01:30:53.052Z,99529.31
2023-01-04T01:34:00.805Z,99528.47
2023-01-04T01:37:07.387Z,99529.31
2023-01-04T01:40:14.805Z,99530.31
2023-01-04T01:43:23.528Z,99528.63
2023-01-04T01:46:41.038Z,99525.25
2023-01-04T01:49:55.284Z,99527.94
2023-01-04T01:53:04.692Z,99520.09
2023-01-04T01:56:14.177Z,99533.06
2023-01-04T01:59:22.832Z,99521.03
2023-01-04T02:02:32.614Z,99518.59
2023-01-04T02:05:40.666Z,99516.94
2023-01-04T02:08:48.000Z,99514.41
2023-01-04T02:11:54.322Z,99503.03
2023-01-04T02:14:59.930Z,99505.63
2023-01-04T02:18:21.411Z,99486.16
2023-01-04T02:21:43.701Z,99503.19
2023-01-04T02:25:29.928Z,99507.47
2023-01-04T02:29:08.623Z,99505.78
2023-01-04T02:32:36.552Z,99503.94
2023-01-04T02:35:58.822Z,99502.25
2023-01-04T02:39:23.615Z,99496.28
2023-01-04T02:43:01.457Z,99479.91
2023-01-04T02:46:18.984Z,99488.53
2023-01-04T02:49:42.954Z,99478.16
2023-01-04T02:52:50.353Z,99478.16
2023-01-04T02:56:14.255Z,99479.91
2023-01-04T02:59:58.213Z,99481.75
2023-01-04T03:03:40.359Z,99472.28
2023-01-04T03:07:02.935Z,99473.28
2023-01-04T03:10:18.808Z,99464.69
2023-01-04T03:13:34.878Z,99461.34
2023-01-04T03:16:46.203Z,99467.56
2023-01-04T03:20:01.319Z,99456.34
2023-01-04T03:23:31.470Z,99447.72
2023-01-04T03:27:04.932Z,99440.75
2023-01-04T03:30:38.451Z,99447.69
2023-01-04T03:34:01.139Z,99445.97
2023-01-04T03:37:19.538Z,99440.81
2023-01-04T03:40:51.655Z,99414.03
2023-01-04T03:44:28.124Z,99427.00
2023-01-04T03:48:01.261Z,99424.44
2023-01-04T03:51:17.595Z,99428.81
2023-01-04T03:54:34.785Z,99419.28
2023-01-04T03:57:45.668Z,99414.09
2023-01-04T04:00:52.325Z,99412.41
2023-01-04T04:04:14.529Z,99414.19
2023-01-04T04:07:36.762Z,99414.28
2023-01-04T04:10:42.241Z,99413.56
2023-01-04T04:13:52.667Z,99411.88
2023-01-04T04:16:58.226Z,99411.19
2023-01-04T04:20:04.615Z,99419.78
2023-01-04T04:23:09.990Z,99419.78
2023-01-04T04:26:16.607Z,99413.72
2023-01-04T04:29:25.682Z,99408.50
2023-01-04T04:32:32.218Z,99406.81
2023-01-04T04:35:37.571Z,99401.66
2023-01-04T04:38:44.545Z,99399.13
2023-01-04T04:41:50.214Z,99393.03
2023-01-04T04:44:59.214Z,99382.66
2023-01-04T04:48:04.707Z,99387.84
2023-01-04T04:51:10.969Z,99388.72
2023-01-04T04:54:21.701Z,99330.38
2023-01-04T04:57:27.895Z,99386.22
2023-01-04T05:00:36.314Z,99366.38
2023-01-04T05:03:42.846Z,99365.56
2023-01-04T05:06:50.318Z,99362.97
2023-01-04T05:09:56.549Z,99362.00
2023-01-04T05:13:06.249Z,99356.81
2023-01-04T05:16:15.510Z,99350.75
2023-01-04T05:19:20.904Z,99353.44
2023-01-04T05:22:27.189Z,99349.16
2023-01-04T05:25:32.669Z,99359.59
2023-01-04T05:28:38.900Z,99344.00
2023-01-04T05:31:44.281Z,99347.50
2023-01-04T05:34:50.513Z,99338.88
2023-01-04T05:37:56.135Z,99341.44
2023-01-04T05:41:02.647Z,99339.66
2023-01-04T05:44:08.048Z,99342.22
2023-01-04T05:47:17.064Z,99337.91
2023-01-04T05:50:24.470Z,99340.28
2023-01-04T05:53:31.160Z,99336.72
2023-01-04T05:56:36.524Z,99337.69
2023-01-04T05:59:43.228Z,99328.16
2023-01-04T06:02:52.920Z,99332.44
2023-01-04T06:05:59.323Z,99331.47
2023-01-04T06:09:04.704Z,99332.25
2023-01-04T06:12:11.296Z,99325.31
2023-01-04T06:15:17.546Z,99337.44
2023-01-04T06:18:26.527Z,99320.19
2023-01-04T06:21:32.170Z,99323.69
2023-01-04T06:24:38.576Z,99315.00
2023-01-04T06:27:44.000Z,99319.28
2023-01-04T06:30:50.526Z,99312.56
2023-01-04T06:33:58.902Z,99324.84
2023-01-04T06:37:06.007Z,99313.56
2023-01-04T06:40:13.430Z,99319.66
2023-01-04T06:43:20.514Z,99329.28
2023-01-04T06:46:26.260Z,99319.88
2023-01-04T06:49:35.595Z,99318.16
2023-01-04T06:52:41.199Z,99301.69
2023-01-04T06:55:47.688Z,99287.75
2023-01-04T06:58:53.035Z,99295.41
2023-01-04T07:01:59.470Z,99297.94
2023-01-04T07:05:08.806Z,99295.22
2023-01-04T07:08:16.940Z,99287.31
2023-01-04T07:11:22.394Z,99288.09
2023-01-04T07:14:28.670Z,99277.59
2023-01-04T07:17:34.045Z,99280.13
2023-01-04T07:20:43.311Z,99285.28
2023-01-04T07:23:48.659Z,99279.91
2023-01-04T07:26:55.112Z,99286.69
2023-01-04T07:30:00.548Z,99285.00
2023-01-04T07:33:07.693Z,99283.16
2023-01-04T07:36:15.890Z,99281.31
2023-01-04T07:39:23.595Z,99281.19
2023-01-04T07:42:29.018Z,99280.22
2023-01-04T07:45:37.170Z,99278.25
2023-01-04T07:48:42.552Z,99292.88
2023-01-04T07:51:52.838Z,99287.69
2023-01-04T07:54:58.530Z,99285.91
2023-01-04T07:58:04.775Z,99288.53
2023-01-04T08:01:11.236Z,99285.06
2023-01-04T08:04:19.622Z,99278.94
2023-01-04T08:07:28.945Z,99259.03
2023-01-04T08:10:35.171Z,99263.16
2023-01-04T08:13:40.940Z,99262.22
2023-01-04T08:16:47.384Z,99258.69
2023-01-04T08:19:52.802Z,99250.75
2023-01-04T08:23:01.876Z,99254.16
2023-01-04T08:26:09.210Z,99265.44
2023-01-04T08:29:16.814Z,99258.44
2023-01-04T08:32:23.174Z,99256.63
2023-01-04T08:35:29.456Z,99254.03
2023-01-04T08:42:18.041Z,99248.69
2023-01-04T08:45:26.245Z,99235.63
2023-01-04T08:48:32.846Z,99238.03
2023-01-04T08:51:38.580Z,99236.09
2023-01-04T08:54:47.698Z,99223.78
2023-01-04T08:57:53.487Z,99223.69
2023-01-04T09:01:04.583Z,99129.41
2023-01-04T09:04:10.499Z,99206.03
2023-01-04T09:07:17.223Z,99207.78
2023-01-04T09:10:28.430Z,99204.19
2023-01-04T09:13:36.373Z,99204.97
2023-01-04T09:16:42.195Z,99201.38
2023-01-04T09:19:53.513Z,99192.41
2023-01-04T09:23:01.223Z,99196.59
2023-01-04T09:26:16.798Z,99186.03
2023-01-04T09:29:22.517Z,99184.13
2023-01-04T09:32:30.829Z,99176.94
2023-01-04T09:35:36.277Z,99169.84
2023-01-04T09:38:45.146Z,99152.22
2023-01-04T09:42:03.346Z,99155.47
2023-01-04T09:45:24.276Z,99150.00
2023-01-04T09:48:35.539Z,99122.75
2023-01-04T09:51:55.305Z,99128.63
2023-01-04T09:55:37.078Z,99124.22
2023-01-04T09:58:41.500Z,99113.94
2023-01-04T10:01:53.992Z,99096.91
2023-01-04T10:05:06.682Z,99087.88
2023-01-04T10:08:20.898Z,99092.81
2023-01-04T10:12:00.685Z,99079.69
2023-01-04T10:15:30.256Z,99079.13
2023-01-04T10:19:37.000Z,99065.75
2023-01-04T10:22:30.711Z,99063.81
2023-01-04T10:25:51.405Z,99054.88
2023-01-04T10:29:45.713Z,99042.72
2023-01-04T10:33:15.461Z,99058.94
2023-01-04T10:36:25.493Z,99048.31
2023-01-04T10:39:38.930Z,99046.38
2023-01-04T10:43:02.504Z,99018.31
2023-01-04T10:46:23.801Z,99015.53
2023-01-04T10:49:46.653Z,99008.09
2023-01-04T10:53:05.257Z,98996.22
2023-01-04T10:56:27.775Z,99005.41
2023-01-04T10:59:47.671Z,98973.84
2023-01-04T11:03:09.557Z,98959.53
2023-01-04T11:06:26.921Z,98967.44
2023-01-04T11:09:46.179Z,98960.56
2023-01-04T11:12:52.735Z,98952.66
2023-01-04T11:15:59.325Z,98952.78
2023-01-04T11:19:07.429Z,98951.88
2023-01-04T11:22:27.332Z,98942.56
2023-01-04T11:25:47.852Z,98936.88
2023-01-04T11:29:05.960Z,98925.09
2023-01-04T11:32:25.246Z,98927.28
2023-01-04T11:35:45.977Z,98913.06
2023-01-04T11:38:59.418Z,98894.81
2023-01-04T11:42:08.347Z,98897.06
2023-01-04T11:45:27.301Z,98882.66
2023-01-04T11:48:43.558Z,98869.16
2023-01-04T11:51:49.808Z,98848.81
2023-01-04T11:55:18.458Z,98857.75
2023-01-04T11:58:28.157Z,98876.47
2023-01-04T12:01:36.392Z,98844.97
2023-01-04T12:04:42.890Z,98849.47
2023-01-04T12:07:48.457Z,98825.34
2023-01-04T12:10:57.988Z,98826.53
2023-01-04T12:14:05.526Z,98827.97
2023-01-04T12:17:22.758Z,98828.16
2023-01-04T12:20:32.836Z,98824.78
2023-01-04T12:23:42.542Z,98822.84
2023-01-04T12:26:53.673Z,98811.53
2023-01-04T12:30:04.525Z,98810.28
2023-01-04T12:33:42.480Z,98792.63
2023-01-04T12:37:05.683Z,98776.38
2023-01-04T12:40:58.178Z,98768.44
2023-01-04T12:45:04.445Z,98784.13
2023-01-04T12:48:53.446Z,98751.97
2023-01-04T12:53:02.371Z,98738.88
2023-01-04T12:56:08.148Z,98739.41
2023-01-04T12:59:25.775Z,98733.81
2023-01-04T13:02:34.497Z,98719.47
2023-01-04T13:05:59.551Z,98712.38
2023-01-04T13:09:05.313Z,98714.91
2023-01-04T13:12:43.686Z,98689.81
2023-01-04T13:16:10.268Z,98694.41
2023-01-04T13:19:28.882Z,98655.16
2023-01-04T13:22:37.245Z,98695.03
2023-01-04T13:25:43.626Z,98671.38
2023-01-04T13:28:53.519Z,98667.31
2023-01-04T13:32:09.302Z,98667.97
2023-01-04T13:35:17.668Z,98639.63
2023-01-04T13:38:23.983Z,98653.31
2023-01-04T13:41:29.813Z,98650.63
2023-01-04T13:45:21.855Z,98649.81
2023-01-04T13:48:39.778Z,98645.69
2023-01-04T13:51:46.207Z,98640.28
2023-01-04T13:54:52.381Z,98634.66
2023-01-04T13:58:01.415Z,98613.25
2023-01-04T14:01:18.455Z,98605.88
2023-01-04T14:04:34.218Z,98593.66
2023-01-04T14:07:39.802Z,98610.97
2023-01-04T14:10:47.724Z,98620.69
2023-01-04T14:13:53.227Z,98620.06
2023-01-04T14:17:44.507Z,98604.81
2023-01-04T14:20:56.330Z,98602.97
2023-01-04T14:24:02.593Z,98595.41
2023-01-04T14:27:36.885Z,98591.75
2023-01-04T14:30:43.357Z,98589.03
2023-01-04T14:33:53.703Z,98591.75
2023-01-04T14:37:08.948Z,98568.66
2023-01-04T14:40:27.029Z,98566.22
2023-01-04T14:43:40.476Z,98543.22
2023-01-04T14:46:48.893Z,98493.78
2023-01-04T14:49:55.243Z,98553.22
2023-01-04T14:53:03.354Z,98552.34
2023-01-04T14:56:11.256Z,98550.16
2023-01-04T14:59:16.647Z,98532.81
2023-01-04T15:02:23.963Z,98530.28
2023-01-04T15:05:37.434Z,98519.44
2023-01-04T15:08:52.685Z,98534.00
2023-01-04T15:12:02.167Z,98485.84
2023-01-04T15:15:09.927Z,98501.72
2023-01-04T15:18:15.334Z,98504.09
2023-01-04T15:21:21.691Z,98500.88
2023-01-04T15:24:29.903Z,98507.63
2023-01-04T15:27:41.975Z,98444.38
2023-01-04T15:30:48.126Z,98503.03
2023-01-04T15:33:54.429Z,98474.31
2023-01-04T15:36:59.855Z,98467.28
2023-01-04T15:40:10.335Z,98478.91
2023-01-04T15:43:16.001Z,98464.81
2023-01-04T15:46:22.367Z,98457.41
2023-01-04T15:49:28.018Z,98452.69
2023-01-04T15:52:34.292Z,98422.78
2023-01-04T15:55:42.424Z,98423.88
2023-01-04T15:58:48.802Z,98417.69
2023-01-04T16:01:54.398Z,98391.84
2023-01-04T16:05:01.204Z,98425.50
2023-01-04T16:08:06.847Z,98411.72
2023-01-04T16:11:23.319Z,98422.41
2023-01-04T16:14:28.713Z,98401.78
2023-01-04T16:17:35.203Z,98411.34
2023-01-04T16:20:44.495Z,98424.41
2023-01-04T16:23:58.391Z,98420.06
2023-01-04T16:27:10.268Z,98407.00
2023-01-04T16:30:18.060Z,98400.88
2023-01-04T16:33:23.407Z,98392.72
2023-01-04T16:36:29.843Z,98375.50
2023-01-04T16:43:07.317Z,98368.28
2023-01-04T16:46:27.631Z,98359.41
2023-01-04T16:49:33.893Z,98349.09
2023-01-04T16:52:39.319Z,98340.44
2023-01-04T16:55:45.599Z,98339.47
2023-01-04T16:58:54.840Z,98345.69
2023-01-04T17:02:01.298Z,98340.31
2023-01-04T17:05:07.384Z,98335.09
2023-01-04T17:08:13.695Z,98325.34
2023-01-04T17:15:15.219Z,98329.47
2023-01-04T17:18:21.653Z,98302.28
2023-01-04T17:21:34.349Z,98296.97
2023-01-04T17:24:40.556Z,98288.06
2023-01-04T17:27:47.053Z,98289.66
2023-01-04T17:30:55.315Z,98280.81
2023-01-04T17:34:02.191Z,98290.81
2023-01-04T17:37:07.603Z,98284.66
2023-01-04T17:40:20.785Z,98274.59
2023-01-04T17:43:28.511Z,98289.28
2023-01-04T17:46:40.298Z,98261.13
2023-01-04T17:49:45.729Z,98276.03
2023-01-04T17:52:53.223Z,98261.75
2023-01-04T17:55:58.567Z,98256.19
2023-01-04T17:59:08.163Z,98233.16
2023-01-04T18:02:18.430Z,98244.34
2023-01-04T18:05:24.747Z,98219.88
2023-01-04T18:08:30.172Z,98225.19
2023-01-04T18:11:37.527Z,98230.94
2023-01-04T18:14:42.987Z,98217.31
2023-01-04T18:17:52.161Z,98200.00
2023-01-04T18:20:59.832Z,98201.69
2023-01-04T18:27:32.273Z,98205.19
2023-01-04T18:30:39.735Z,98191.34
2023-01-04T18:33:56.708Z,98188.56
2023-01-04T18:37:03.028Z,98190.06
2023-01-04T18:40:09.918Z,98179.44
2023-01-04T18:43:16.232Z,98202.84
2023-01-04T18:46:23.518Z,98183.34
2023-01-04T18:49:35.607Z,98153.28
2023-01-04T18:52:41.527Z,98147.13
2023-01-04T18:55:47.896Z,98175.06
2023-01-04T18:58:55.431Z,98169.94
2023-01-04T19:02:03.661Z,98154.81
2023-01-04T19:05:13.578Z,98182.31
2023-01-04T19:08:20.097Z,98173.38
2023-01-04T19:11:26.045Z,98152.09
2023-01-04T19:14:32.452Z,98165.59
2023-01-04T19:17:38.963Z,98153.00
2023-01-04T19:20:49.044Z,98151.25
2023-01-04T19:23:54.465Z,98141.38
2023-01-04T19:27:03.485Z,98130.91
2023-01-04T19:30:11.130Z,98130.75
2023-01-04T19:33:17.769Z,98127.19
2023-01-04T19:36:26.599Z,98122.31
2023-01-04T19:39:32.942Z,98115.78
2023-01-04T19:42:39.914Z,98107.19
2023-01-04T19:45:46.264Z,98113.94
2023-01-04T19:48:51.643Z,98110.53
2023-01-04T19:52:00.698Z,98091.13
2023-01-04T19:55:07.240Z,98102.78
2023-01-04T19:58:15.100Z,98104.78
2023-01-04T20:01:23.844Z,98096.34
2023-01-04T20:04:31.832Z,98098.28
2023-01-04T20:07:40.022Z,98092.59
2023-01-04T20:10:48.820Z,98084.69
2023-01-04T20:13:54.233Z,98100.91
2023-01-04T20:17:00.621Z,98097.19
2023-01-04T20:20:07.848Z,98083.31
2023-01-04T20:23:20.031Z,98077.59
2023-01-04T20:26:25.459Z,98075.22
2023-01-04T20:29:32.175Z,98070.16
2023-01-04T20:32:39.164Z,98056.22
2023-01-04T20:35:48.043Z,98071.25
2023-01-04T20:38:58.237Z,98054.28
2023-01-04T20:42:16.606Z,98067.38
2023-01-04T20:45:22.158Z,98066.59
2023-01-04T20:48:28.536Z,98033.06
2023-01-04T20:51:34.207Z,98059.69
2023-01-04T20:54:43.540Z,98029.47
2023-01-04T20:57:48.886Z,98034.63
2023-01-04T21:00:55.208Z,98029.69
2023-01-04T21:04:00.936Z,98028.84
2023-01-04T21:07:07.292Z,98027.34
2023-01-04T21:10:15.474Z,98021.75
2023-01-04T21:13:21.720Z,97997.59
2023-01-04T21:16:27.072Z,97990.56
2023-01-04T21:19:34.642Z,98004.69
2023-01-04T21:22:40.034Z,97991.53
2023-01-04T21:25:50.046Z,97981.13
2023-01-04T21:28:56.098Z,97990.00
2023-01-04T21:32:02.326Z,97981.69
2023-01-04T21:35:08.950Z,97993.66
2023-01-04T21:38:15.249Z,97971.38
2023-01-04T21:41:25.847Z,97996.44
2023-01-04T21:44:32.727Z,97991.41
2023-01-04T21:47:38.163Z,97983.28
2023-01-04T21:50:44.460Z,97976.06
2023-01-04T21:53:53.257Z,97971.03
2023-01-04T21:57:02.295Z,97953.81
2023-01-04T22:00:11.429Z,97946.53
2023-01-04T22:03:17.697Z,97962.16
2023-01-04T22:06:25.396Z,97941.72
2023-01-04T22:09:37.535Z,97945.94
2023-01-04T22:12:48.059Z,97946.63
2023-01-04T22:15:54.774Z,97937.84
2023-01-04T22:19:00.202Z,97928.75
2023-01-04T22:22:06.405Z,97929.50
2023-01-04T22:25:12.768Z,97935.81
2023-01-04T22:28:21.767Z,97938.84
2023-01-04T22:31:27.275Z,97936.78
2023-01-04T22:34:33.770Z,97946.88
2023-01-04T22:37:39.363Z,97926.13
2023-01-04T22:40:45.938Z,97926.84
2023-01-04T22:43:59.515Z,97909.09
2023-01-04T22:47:05.902Z,97920.31
2023-01-04T22:50:12.014Z,97912.28
2023-01-04T22:53:18.278Z,97891.06
2023-01-04T22:56:23.851Z,97903.47
2023-01-04T22:59:32.923Z,97902.56
2023-01-04T23:02:38.429Z,97893.56
2023-01-04T23:05:44.925Z,97904.03
2023-01-04T23:08:51.383Z,97877.75
2023-01-04T23:11:57.897Z,97887.03
2023-01-04T23:15:06.436Z,97877.84
2023-01-04T23:18:12.750Z,97859.63
2023-01-04T23:21:19.723Z,97850.00
2023-01-04T23:24:26.008Z,97857.66
2023-01-04T23:27:32.148Z,97850.38
2023-01-04T23:30:43.522Z,97846.06
2023-01-04T23:33:50.929Z,97847.84
2023-01-04T23:36:57.154Z,97830.28
2023-01-04T23:40:03.228Z,97829.88
2023-01-04T23:43:09.503Z,97810.44
2023-01-04T23:46:20.688Z,97814.44
2023-01-04T23:49:29.535Z,97801.72
2023-01-04T23:52:35.126Z,97801.00
2023-01-04T23:55:41.383Z,97816.09
2023-01-04T23:58:46.771Z,97808.09
